createdAt,value
2023-05-24T00:00:44.291Z,0.00
2023-05-24T00:01:44.117Z,0.00
2023-05-24T00:02:44.174Z,0.00
2023-05-24T00:03:44.296Z,0.00
2023-05-24T00:04:44.152Z,0.00
2023-05-24T00:05:44.124Z,0.00
2023-05-24T00:06:44.126Z,0.00
2023-05-24T00:07:44.153Z,0.00
2023-05-24T00:08:44.113Z,0.00
2023-05-24T00:09:44.118Z,0.00
2023-05-24T00:10:44.401Z,0.00
2023-05-24T00:11:44.120Z,0.00
2023-05-24T00:12:44.122Z,0.00
2023-05-24T00:13:44.121Z,0.00
2023-05-24T00:14:44.135Z,0.00
2023-05-24T00:15:44.127Z,0.00
2023-05-24T00:16:44.158Z,0.00
2023-05-24T00:17:44.136Z,0.00
2023-05-24T00:18:44.123Z,0.00
2023-05-24T00:19:44.132Z,0.00
2023-05-24T00:20:44.385Z,0.00
2023-05-24T00:21:44.119Z,0.00
2023-05-24T00:22:44.132Z,0.00
2023-05-24T00:23:44.139Z,0.00
2023-05-24T00:24:44.131Z,0.00
2023-05-24T00:25:44.130Z,0.00
2023-05-24T00:26:44.123Z,0.00
2023-05-24T00:27:44.125Z,0.00
2023-05-24T00:28:44.130Z,0.00
2023-05-24T00:29:44.119Z,0.00
2023-05-24T00:30:44.319Z,0.00
2023-05-24T00:31:44.140Z,0.00
2023-05-24T00:32:44.147Z,0.00
2023-05-24T00:33:44.142Z,0.00
2023-05-24T00:34:44.119Z,0.00
2023-05-24T00:35:44.127Z,0.00
2023-05-24T00:36:44.125Z,0.00
2023-05-24T00:37:44.226Z,0.00
2023-05-24T00:38:44.126Z,0.00
2023-05-24T00:39:44.152Z,0.00
2023-05-24T00:40:44.298Z,0.00
2023-05-24T00:41:44.124Z,0.00
2023-05-24T00:42:44.125Z,0.00
2023-05-24T00:43:44.122Z,0.00
2023-05-24T00:44:44.452Z,0.00
2023-05-24T00:45:44.255Z,0.00
2023-05-24T00:46:44.192Z,0.00
2023-05-24T00:47:44.166Z,0.00
2023-05-24T00:48:44.153Z,0.00
2023-05-24T00:49:44.126Z,0.00
2023-05-24T00:50:44.285Z,0.00
2023-05-24T00:51:44.448Z,0.00
2023-05-24T00:52:44.124Z,0.00
2023-05-24T00:53:44.124Z,0.00
2023-05-24T00:54:44.128Z,0.00
2023-05-24T00:55:44.145Z,0.00
2023-05-24T00:56:44.124Z,0.00
2023-05-24T00:57:44.122Z,0.00
2023-05-24T00:58:44.144Z,0.00
2023-05-24T00:59:44.124Z,0.00
2023-05-24T01:00:44.128Z,0.00
2023-05-24T01:01:44.235Z,0.00
2023-05-24T01:02:44.252Z,0.00
2023-05-24T01:03:44.563Z,0.00
2023-05-24T01:04:44.141Z,0.00
2023-05-24T01:05:44.127Z,0.00
2023-05-24T01:06:44.139Z,0.00
2023-05-24T01:07:44.126Z,0.00
2023-05-24T01:08:44.136Z,0.00
2023-05-24T01:09:44.128Z,0.00
2023-05-24T01:10:44.673Z,0.00
2023-05-24T01:11:44.158Z,0.00
2023-05-24T01:12:44.138Z,0.00
2023-05-24T01:13:44.129Z,0.00
2023-05-24T01:14:44.137Z,0.00
2023-05-24T01:15:44.153Z,0.00
2023-05-24T01:16:44.141Z,0.00
2023-05-24T01:17:44.142Z,0.00
2023-05-24T01:18:44.455Z,0.00
2023-05-24T01:19:44.129Z,0.00
2023-05-24T01:20:44.524Z,0.00
2023-05-24T01:21:44.129Z,0.00
2023-05-24T01:22:44.139Z,0.00
2023-05-24T01:23:44.129Z,0.00
2023-05-24T01:24:44.142Z,0.00
2023-05-24T01:25:44.130Z,0.00
2023-05-24T01:26:44.127Z,0.00
2023-05-24T01:27:44.156Z,0.00
2023-05-24T01:28:44.132Z,0.00
2023-05-24T01:29:44.133Z,0.00
2023-05-24T01:30:44.281Z,0.00
2023-05-24T01:31:44.154Z,0.00
2023-05-24T01:32:44.209Z,0.00
2023-05-24T01:33:44.132Z,0.00
2023-05-24T01:34:44.439Z,0.00
2023-05-24T01:35:44.134Z,0.00
2023-05-24T01:36:44.140Z,0.00
2023-05-24T01:37:44.127Z,0.00
2023-05-24T01:38:44.134Z,0.00
2023-05-24T01:39:44.229Z,0.00
2023-05-24T01:40:44.695Z,0.00
2023-05-24T01:41:44.128Z,0.00
2023-05-24T01:42:44.140Z,0.00
2023-05-24T01:43:44.454Z,0.00
2023-05-24T01:44:44.139Z,0.00
2023-05-24T01:45:44.144Z,0.00
2023-05-24T01:46:44.152Z,0.00
2023-05-24T01:47:44.212Z,0.00
2023-05-24T01:52:00.238Z,0.00
2023-05-24T01:53:00.075Z,0.00
2023-05-24T01:54:00.075Z,0.00
2023-05-24T01:55:00.067Z,0.00
2023-05-24T01:56:00.104Z,0.00
2023-05-24T01:57:00.072Z,0.00
2023-05-24T01:58:00.084Z,0.00
2023-05-24T01:59:00.113Z,0.00
2023-05-24T02:00:00.066Z,0.00
2023-05-24T02:01:00.123Z,0.00
2023-05-24T02:02:00.145Z,0.00
2023-05-24T02:03:00.162Z,0.00
2023-05-24T02:04:00.064Z,0.00
2023-05-24T02:05:00.100Z,0.00
2023-05-24T02:06:00.071Z,0.00
2023-05-24T02:07:00.064Z,0.00
2023-05-24T02:08:00.065Z,0.00
2023-05-24T02:09:00.073Z,0.00
2023-05-24T02:10:00.092Z,0.00
2023-05-24T02:11:00.079Z,0.00
2023-05-24T02:12:00.094Z,0.00
2023-05-24T02:13:00.119Z,0.00
2023-05-24T02:14:00.066Z,0.00
2023-05-24T02:15:00.153Z,0.00
2023-05-24T02:16:00.075Z,0.00
2023-05-24T02:17:00.100Z,0.00
2023-05-24T02:18:00.076Z,0.00
2023-05-24T02:19:00.068Z,0.00
2023-05-24T02:20:00.115Z,0.00
2023-05-24T02:21:00.068Z,4.00
2023-05-24T02:22:00.068Z,4.00
2023-05-24T02:23:00.221Z,4.00
2023-05-24T02:24:00.061Z,0.00
2023-05-24T02:25:00.097Z,0.00
2023-05-24T02:26:00.068Z,0.00
2023-05-24T02:27:00.094Z,0.00
2023-05-24T02:28:00.087Z,4.00
2023-05-24T02:29:00.062Z,4.00
2023-05-24T02:30:00.067Z,4.00
2023-05-24T02:31:00.157Z,0.00
2023-05-24T02:32:00.059Z,4.00
2023-05-24T02:33:00.137Z,4.00
2023-05-24T02:34:00.065Z,8.00
2023-05-24T02:35:00.090Z,4.00
2023-05-24T02:36:00.092Z,8.00
2023-05-24T02:37:00.071Z,8.00
2023-05-24T02:38:00.061Z,12.00
2023-05-24T02:39:00.061Z,12.00
2023-05-24T02:40:00.060Z,8.00
2023-05-24T02:41:00.065Z,12.00
2023-05-24T02:42:00.157Z,12.00
2023-05-24T02:43:00.081Z,16.00
2023-05-24T02:44:00.097Z,16.00
2023-05-24T02:45:00.068Z,16.00
2023-05-24T02:46:00.107Z,20.00
2023-05-24T02:47:00.133Z,20.00
2023-05-24T02:48:00.194Z,24.00
2023-05-24T02:49:00.074Z,24.00
2023-05-24T02:50:00.071Z,28.00
2023-05-24T02:51:00.067Z,32.00
2023-05-24T02:52:00.066Z,32.00
2023-05-24T02:53:00.077Z,32.00
2023-05-24T02:54:00.060Z,40.00
2023-05-24T02:55:00.063Z,48.00
2023-05-24T02:56:00.060Z,48.00
2023-05-24T02:57:00.065Z,56.00
2023-05-24T02:58:03.492Z,60.00
2023-05-24T02:59:00.062Z,64.00
2023-05-24T03:00:00.070Z,68.00
2023-05-24T03:01:00.060Z,68.00
2023-05-24T03:02:00.253Z,68.00
2023-05-24T03:03:00.197Z,72.00
2023-05-24T03:04:00.187Z,72.00
2023-05-24T03:05:00.065Z,76.00
2023-05-24T03:06:00.056Z,88.00
2023-05-24T03:07:00.056Z,96.00
2023-05-24T03:08:00.055Z,100.00
2023-05-24T03:09:00.058Z,104.00
2023-05-24T03:10:00.079Z,108.00
2023-05-24T03:11:42.595Z,112.00
2023-05-24T03:12:42.607Z,112.00
2023-05-24T03:13:42.595Z,116.00
2023-05-24T03:14:42.600Z,120.00
2023-05-24T03:15:42.602Z,132.00
2023-05-24T03:16:42.711Z,140.00
2023-05-24T03:17:42.664Z,148.00
2023-05-24T03:18:42.625Z,156.00
2023-05-24T03:19:42.604Z,164.00
2023-05-24T03:20:42.865Z,180.00
2023-05-24T03:21:42.600Z,184.00
2023-05-24T03:22:42.608Z,192.00
2023-05-24T03:23:42.602Z,196.00
2023-05-24T03:24:42.602Z,208.00
2023-05-24T03:25:42.599Z,212.00
2023-05-24T03:26:42.602Z,220.00
2023-05-24T03:27:42.603Z,232.00
2023-05-24T03:28:42.612Z,248.00
2023-05-24T03:29:42.615Z,260.00
2023-05-24T03:30:42.965Z,284.00
2023-05-24T03:31:42.657Z,312.00
2023-05-24T03:32:42.647Z,336.00
2023-05-24T03:33:42.607Z,356.00
2023-05-24T03:34:42.623Z,368.00
2023-05-24T03:35:42.610Z,380.00
2023-05-24T03:36:42.604Z,392.00
2023-05-24T03:37:42.611Z,400.00
2023-05-24T03:38:42.608Z,412.00
2023-05-24T03:39:42.598Z,424.00
2023-05-24T03:40:42.780Z,436.00
2023-05-24T03:41:42.603Z,460.00
2023-05-24T03:42:42.632Z,472.00
2023-05-24T03:43:42.601Z,484.00
2023-05-24T03:44:42.601Z,496.00
2023-05-24T03:45:42.654Z,516.00
2023-05-24T03:46:42.660Z,540.00
2023-05-24T03:47:42.675Z,576.00
2023-05-24T03:48:42.605Z,612.00
2023-05-24T03:49:42.603Z,640.00
2023-05-24T03:50:42.879Z,664.00
2023-05-24T03:51:42.601Z,688.00
2023-05-24T03:52:42.612Z,720.00
2023-05-24T03:53:42.601Z,748.00
2023-05-24T03:54:42.609Z,764.00
2023-05-24T03:55:42.612Z,776.00
2023-05-24T03:56:42.603Z,792.00
2023-05-24T03:57:42.600Z,816.00
2023-05-24T03:58:42.611Z,844.00
2023-05-24T03:59:42.598Z,852.00
2023-05-24T04:00:42.830Z,860.00
2023-05-24T04:01:42.604Z,892.00
2023-05-24T04:02:42.839Z,940.00
2023-05-24T04:03:42.670Z,984.00
2023-05-24T04:04:42.599Z,1036.00
2023-05-24T04:05:42.604Z,1104.00
2023-05-24T04:06:42.620Z,1176.00
2023-05-24T04:07:42.597Z,1204.00
2023-05-24T04:08:42.601Z,1200.00
2023-05-24T04:09:42.598Z,1184.00
2023-05-24T04:10:42.854Z,1184.00
2023-05-24T04:11:42.601Z,1216.00
2023-05-24T04:12:42.601Z,1276.00
2023-05-24T04:13:42.594Z,1316.00
2023-05-24T04:14:42.598Z,1344.00
2023-05-24T04:15:42.595Z,1368.00
2023-05-24T04:16:42.629Z,1380.00
2023-05-24T04:17:42.799Z,1368.00
2023-05-24T04:18:42.688Z,1380.00
2023-05-24T04:19:42.598Z,1408.00
2023-05-24T04:20:42.750Z,1444.00
2023-05-24T04:21:42.600Z,1472.00
2023-05-24T04:22:42.716Z,1496.00
2023-05-24T04:23:42.598Z,1532.00
2023-05-24T04:24:42.629Z,1580.00
2023-05-24T04:25:42.596Z,1600.00
2023-05-24T04:26:42.599Z,1644.00
2023-05-24T04:27:42.607Z,1692.00
2023-05-24T04:28:42.607Z,1712.00
2023-05-24T04:29:42.596Z,1712.00
2023-05-24T04:30:42.791Z,1724.00
2023-05-24T04:31:42.731Z,1760.00
2023-05-24T04:32:42.628Z,1756.00
2023-05-24T04:33:42.599Z,1728.00
2023-05-24T04:34:42.600Z,1720.00
2023-05-24T04:35:42.600Z,1740.00
2023-05-24T04:36:42.604Z,1780.00
2023-05-24T04:37:42.615Z,1824.00
2023-05-24T04:38:42.653Z,1840.00
2023-05-24T04:39:42.602Z,1852.00
2023-05-24T04:40:42.851Z,1876.00
2023-05-24T04:41:42.597Z,1912.00
2023-05-24T04:42:42.605Z,1972.00
2023-05-24T04:43:42.598Z,1992.00
2023-05-24T04:44:42.600Z,2000.00
2023-05-24T04:45:42.608Z,2004.00
2023-05-24T04:46:42.643Z,2024.00
2023-05-24T04:47:42.684Z,2052.00
2023-05-24T04:48:42.609Z,2048.00
2023-05-24T04:49:42.598Z,2008.00
2023-05-24T04:50:42.958Z,1940.00
2023-05-24T04:51:42.606Z,1916.00
2023-05-24T04:52:42.605Z,1968.00
2023-05-24T04:53:42.604Z,2036.00
2023-05-24T04:54:42.624Z,2084.00
2023-05-24T04:55:42.603Z,2160.00
2023-05-24T04:56:42.610Z,2272.00
2023-05-24T04:57:42.604Z,2392.00
2023-05-24T04:58:42.624Z,2492.00
2023-05-24T04:59:42.609Z,2564.00
2023-05-24T05:00:42.786Z,2568.00
2023-05-24T05:01:42.624Z,2588.00
2023-05-24T05:02:42.624Z,2668.00
2023-05-24T05:03:42.694Z,2748.00
2023-05-24T05:04:42.636Z,2816.00
2023-05-24T05:05:42.602Z,2812.00
2023-05-24T05:06:42.610Z,2788.00
2023-05-24T05:07:42.602Z,2696.00
2023-05-24T05:08:42.611Z,2632.00
2023-05-24T05:09:42.598Z,2588.00
2023-05-24T05:10:42.961Z,2552.00
2023-05-24T05:11:42.610Z,2520.00
2023-05-24T05:12:42.602Z,2560.00
2023-05-24T05:13:42.598Z,2528.00
2023-05-24T05:14:42.606Z,2620.00
2023-05-24T05:15:42.952Z,2628.00
2023-05-24T05:16:42.628Z,2548.00
2023-05-24T05:17:42.672Z,2640.00
2023-05-24T05:18:42.615Z,2836.00
2023-05-24T05:19:42.600Z,3168.00
2023-05-24T05:20:42.873Z,3352.00
2023-05-24T05:21:42.605Z,3492.00
2023-05-24T05:22:42.601Z,3552.00
2023-05-24T05:23:42.604Z,3564.00
2023-05-24T05:24:42.615Z,3620.00
2023-05-24T05:25:42.604Z,3712.00
2023-05-24T05:26:42.643Z,3804.00
2023-05-24T05:27:42.609Z,3920.00
2023-05-24T05:28:42.613Z,4064.00
2023-05-24T05:29:42.600Z,4184.00
2023-05-24T05:30:42.827Z,4180.00
2023-05-24T05:31:42.604Z,4168.00
2023-05-24T05:32:42.687Z,4224.00
2023-05-24T05:33:42.637Z,4340.00
2023-05-24T05:34:42.610Z,4500.00
2023-05-24T05:35:42.605Z,4656.00
2023-05-24T05:36:42.626Z,4816.00
2023-05-24T05:37:42.605Z,4892.00
2023-05-24T05:38:42.617Z,4856.00
2023-05-24T05:39:42.612Z,4836.00
2023-05-24T05:40:42.944Z,4784.00
2023-05-24T05:41:44.720Z,4604.00
2023-05-24T05:42:42.645Z,4408.00
2023-05-24T05:43:42.610Z,4148.00
2023-05-24T05:44:42.612Z,4024.00
2023-05-24T05:45:42.624Z,3944.00
2023-05-24T05:46:42.618Z,3880.00
2023-05-24T05:47:42.635Z,3680.00
2023-05-24T05:48:44.216Z,3424.00
2023-05-24T05:49:42.610Z,3152.00
2023-05-24T05:50:42.877Z,3056.00
2023-05-24T05:51:42.618Z,3172.00
2023-05-24T05:52:42.616Z,3316.00
2023-05-24T05:53:42.619Z,3364.00
2023-05-24T05:54:42.639Z,3476.00
2023-05-24T05:55:42.617Z,3840.00
2023-05-24T05:56:42.626Z,4016.00
2023-05-24T05:57:42.616Z,4424.00
2023-05-24T05:58:42.638Z,4528.00
2023-05-24T05:59:42.611Z,3904.00
2023-05-24T06:00:42.917Z,3788.00
2023-05-24T06:01:42.620Z,3656.00
2023-05-24T06:02:42.703Z,3912.00
2023-05-24T06:03:42.726Z,4488.00
2023-05-24T06:04:42.655Z,4448.00
2023-05-24T06:05:42.624Z,4472.00
2023-05-24T06:06:42.615Z,4692.00
2023-05-24T06:07:42.619Z,4816.00
2023-05-24T06:08:42.637Z,4960.00
2023-05-24T06:09:42.627Z,5216.00
2023-05-24T06:10:42.875Z,5472.00
2023-05-24T06:11:42.617Z,5740.00
2023-05-24T06:12:42.618Z,6004.00
2023-05-24T06:13:42.625Z,6304.00
2023-05-24T06:14:43.095Z,6456.00
2023-05-24T06:15:42.668Z,6328.00
2023-05-24T06:16:42.641Z,6060.00
2023-05-24T06:17:42.652Z,5924.00
2023-05-24T06:18:50.158Z,5976.00
2023-05-24T06:19:42.619Z,6056.00
2023-05-24T06:20:42.919Z,6048.00
2023-05-24T06:21:42.625Z,6188.00
2023-05-24T06:22:42.631Z,6252.00
2023-05-24T06:23:42.621Z,6204.00
2023-05-24T06:24:42.623Z,6340.00
2023-05-24T06:25:42.621Z,6276.00
2023-05-24T06:26:42.628Z,5908.00
2023-05-24T06:27:42.632Z,5648.00
2023-05-24T06:28:42.628Z,5596.00
2023-05-24T06:29:42.665Z,5592.00
2023-05-24T06:30:43.060Z,5628.00
2023-05-24T06:31:42.693Z,5456.00
2023-05-24T06:32:42.679Z,5216.00
2023-05-24T06:33:46.855Z,5016.00
2023-05-24T06:34:42.626Z,4912.00
2023-05-24T06:35:42.627Z,5352.00
2023-05-24T06:36:42.655Z,6252.00
2023-05-24T06:37:42.635Z,6952.00
2023-05-24T06:38:42.628Z,7000.00
2023-05-24T06:39:42.627Z,6772.00
2023-05-24T06:40:42.833Z,6940.00
2023-05-24T06:41:42.630Z,7072.00
2023-05-24T06:42:42.639Z,7432.00
2023-05-24T06:43:42.631Z,7480.00
2023-05-24T06:44:42.638Z,7364.00
2023-05-24T06:45:42.632Z,7252.00
2023-05-24T06:46:42.786Z,7056.00
2023-05-24T06:47:42.719Z,7204.00
2023-05-24T06:48:42.724Z,7356.00
2023-05-24T06:49:42.634Z,7560.00
2023-05-24T06:50:42.999Z,7776.00
2023-05-24T06:51:42.637Z,8196.00
2023-05-24T06:52:42.642Z,8676.00
2023-05-24T06:53:42.647Z,9080.00
2023-05-24T06:54:42.641Z,9388.00
2023-05-24T06:55:42.651Z,9404.00
2023-05-24T06:56:42.646Z,9140.00
2023-05-24T06:57:42.643Z,8820.00
2023-05-24T06:58:42.647Z,8604.00
2023-05-24T06:59:42.645Z,8576.00
2023-05-24T07:00:42.927Z,8988.00
2023-05-24T07:01:42.688Z,9736.00
2023-05-24T07:02:42.707Z,10328.00
2023-05-24T07:03:42.700Z,10556.00
2023-05-24T07:04:42.686Z,10432.00
2023-05-24T07:05:42.656Z,10100.00
2023-05-24T07:06:42.656Z,9672.00
2023-05-24T07:07:42.661Z,9324.00
2023-05-24T07:08:42.668Z,9180.00
2023-05-24T07:09:42.693Z,9196.00
2023-05-24T07:10:42.850Z,9216.00
2023-05-24T07:11:42.693Z,9236.00
2023-05-24T07:12:42.660Z,9304.00
2023-05-24T07:13:42.651Z,9308.00
2023-05-24T07:14:42.654Z,9316.00
2023-05-24T07:15:42.662Z,9240.00
2023-05-24T07:16:42.691Z,9152.00
2023-05-24T07:17:42.677Z,9196.00
2023-05-24T07:18:42.749Z,9480.00
2023-05-24T07:19:42.655Z,9928.00
2023-05-24T07:20:42.913Z,10352.00
2023-05-24T07:21:42.666Z,10668.00
2023-05-24T07:22:42.667Z,10860.00
2023-05-24T07:23:42.667Z,10848.00
2023-05-24T07:24:42.666Z,10676.00
2023-05-24T07:25:42.660Z,10600.00
2023-05-24T07:26:42.658Z,10632.00
2023-05-24T07:27:42.680Z,10900.00
2023-05-24T07:28:42.669Z,11232.00
2023-05-24T07:29:42.678Z,11376.00
2023-05-24T07:30:42.675Z,11632.00
2023-05-24T07:31:42.742Z,11736.00
2023-05-24T07:32:42.779Z,11800.00
2023-05-24T07:33:42.684Z,11988.00
2023-05-24T07:34:42.760Z,12228.00
2023-05-24T07:35:42.677Z,12300.00
2023-05-24T07:36:42.673Z,12364.00
2023-05-24T07:37:42.679Z,11608.00
2023-05-24T07:38:42.678Z,10416.00
2023-05-24T07:39:42.679Z,10280.00
2023-05-24T07:40:43.052Z,10308.00
2023-05-24T07:41:42.681Z,10596.00
2023-05-24T07:42:42.682Z,10868.00
2023-05-24T07:43:42.680Z,10944.00
2023-05-24T07:44:42.700Z,11544.00
2023-05-24T07:45:42.943Z,11932.00
2023-05-24T07:46:42.763Z,11328.00
2023-05-24T07:47:42.702Z,10688.00
2023-05-24T07:48:42.693Z,11284.00
2023-05-24T07:49:42.700Z,12412.00
2023-05-24T07:50:42.937Z,14832.00
2023-05-24T07:51:42.696Z,16544.00
2023-05-24T07:52:42.695Z,16352.00
2023-05-24T07:53:42.706Z,17568.00
2023-05-24T07:54:42.709Z,17504.00
2023-05-24T07:55:42.927Z,18240.00
2023-05-24T07:56:42.696Z,20544.00
2023-05-24T07:57:42.732Z,34336.00
2023-05-24T07:58:42.704Z,33664.00
2023-05-24T07:59:42.702Z,44640.00
2023-05-24T08:00:42.706Z,17632.00
2023-05-24T08:01:42.716Z,22752.00
2023-05-24T08:02:42.823Z,12672.00
2023-05-24T08:03:42.910Z,12920.00
2023-05-24T08:04:42.714Z,11580.00
2023-05-24T08:05:42.946Z,11760.00
2023-05-24T08:06:42.788Z,12008.00
2023-05-24T08:07:42.765Z,12448.00
2023-05-24T08:08:42.756Z,13196.00
2023-05-24T08:09:42.728Z,13796.00
2023-05-24T08:10:42.738Z,13816.00
2023-05-24T08:11:42.735Z,13724.00
2023-05-24T08:12:42.729Z,13816.00
2023-05-24T08:13:42.731Z,13232.00
2023-05-24T08:14:42.732Z,12356.00
2023-05-24T08:15:43.023Z,13004.00
2023-05-24T08:16:42.815Z,13164.00
2023-05-24T08:17:42.769Z,11456.00
2023-05-24T08:18:42.739Z,9384.00
2023-05-24T08:19:42.739Z,8016.00
2023-05-24T08:20:42.810Z,7108.00
2023-05-24T08:21:42.745Z,6616.00
2023-05-24T08:22:43.196Z,6588.00
2023-05-24T08:23:42.749Z,6484.00
2023-05-24T08:24:42.743Z,6224.00
2023-05-24T08:25:42.983Z,6396.00
2023-05-24T08:26:42.755Z,7020.00
2023-05-24T08:27:42.769Z,7860.00
2023-05-24T08:28:42.759Z,8016.00
2023-05-24T08:29:42.765Z,8220.00
2023-05-24T08:30:42.758Z,8688.00
2023-05-24T08:31:42.791Z,9056.00
2023-05-24T08:32:42.802Z,9492.00
2023-05-24T08:33:42.775Z,9268.00
2023-05-24T08:34:42.772Z,8440.00
2023-05-24T08:35:42.959Z,7948.00
2023-05-24T08:36:42.774Z,7708.00
2023-05-24T08:38:42.801Z,8748.00
2023-05-24T08:39:42.777Z,9416.00
2023-05-24T08:40:42.780Z,10068.00
2023-05-24T08:41:43.017Z,10972.00
2023-05-24T08:42:42.885Z,12004.00
2023-05-24T08:43:42.791Z,12504.00
2023-05-24T08:44:42.792Z,22368.00
2023-05-24T08:45:43.100Z,54272.00
2023-05-24T08:46:42.844Z,11872.00
2023-05-24T08:47:42.968Z,10128.00
2023-05-24T08:48:42.871Z,9324.00
2023-05-24T08:49:42.788Z,8712.00
2023-05-24T08:50:42.795Z,8128.00
2023-05-24T08:51:42.801Z,7500.00
2023-05-24T08:52:42.800Z,6816.00
2023-05-24T08:53:42.801Z,6312.00
2023-05-24T08:54:42.841Z,6024.00
2023-05-24T08:55:43.185Z,6108.00
2023-05-24T08:56:42.813Z,6024.00
2023-05-24T08:57:42.811Z,5804.00
2023-05-24T08:58:42.808Z,5448.00
2023-05-24T08:59:42.822Z,5052.00
2023-05-24T09:00:42.817Z,4924.00
2023-05-24T09:01:42.850Z,4848.00
2023-05-24T09:02:42.891Z,4940.00
2023-05-24T09:03:42.862Z,5188.00
2023-05-24T09:04:42.820Z,5500.00
2023-05-24T09:05:43.112Z,5680.00
2023-05-24T09:06:42.826Z,5700.00
2023-05-24T09:07:42.822Z,5552.00
2023-05-24T09:08:43.974Z,5492.00
2023-05-24T09:09:42.835Z,5552.00
2023-05-24T09:10:53.844Z,5772.00
2023-05-24T09:11:42.829Z,6180.00
2023-05-24T09:12:42.834Z,6620.00
2023-05-24T09:13:42.830Z,7156.00
2023-05-24T09:14:42.840Z,7552.00
2023-05-24T09:15:43.204Z,7748.00
2023-05-24T09:16:42.872Z,7808.00
2023-05-24T09:17:42.912Z,7800.00
2023-05-24T09:18:42.843Z,7768.00
2023-05-24T09:19:42.844Z,7788.00
2023-05-24T09:20:43.076Z,7840.00
2023-05-24T09:21:42.844Z,7856.00
2023-05-24T09:22:43.027Z,8048.00
2023-05-24T09:23:42.850Z,8084.00
2023-05-24T09:24:42.853Z,8120.00
2023-05-24T09:25:42.859Z,8488.00
2023-05-24T09:26:42.867Z,8964.00
2023-05-24T09:27:42.847Z,9560.00
2023-05-24T09:28:42.855Z,9976.00
2023-05-24T09:29:42.852Z,9976.00
2023-05-24T09:30:43.076Z,9872.00
2023-05-24T09:31:42.870Z,10264.00
2023-05-24T09:32:42.888Z,10628.00
2023-05-24T09:33:42.861Z,11080.00
2023-05-24T09:34:42.863Z,11816.00
2023-05-24T09:35:42.854Z,12560.00
2023-05-24T09:36:42.868Z,13132.00
2023-05-24T09:37:42.867Z,12352.00
2023-05-24T09:38:42.880Z,11176.00
2023-05-24T09:39:42.857Z,10152.00
2023-05-24T09:40:42.979Z,8352.00
2023-05-24T09:41:42.869Z,7552.00
2023-05-24T09:42:42.885Z,7056.00
2023-05-24T09:43:42.865Z,6848.00
2023-05-24T09:44:42.874Z,6896.00
2023-05-24T09:45:42.905Z,6972.00
2023-05-24T09:46:42.943Z,6944.00
2023-05-24T09:47:42.947Z,6888.00
2023-05-24T09:48:42.878Z,7088.00
2023-05-24T09:49:42.869Z,7048.00
2023-05-24T09:50:43.158Z,7228.00
2023-05-24T09:51:43.054Z,7580.00
2023-05-24T09:52:42.909Z,7920.00
2023-05-24T09:53:42.876Z,8428.00
2023-05-24T09:54:42.885Z,8668.00
2023-05-24T09:55:42.878Z,8816.00
2023-05-24T09:56:42.911Z,9056.00
2023-05-24T09:57:42.886Z,9380.00
2023-05-24T09:58:42.932Z,9668.00
2023-05-24T09:59:42.895Z,9672.00
2023-05-24T10:00:43.609Z,9616.00
2023-05-24T10:01:42.970Z,9880.00
2023-05-24T10:02:52.313Z,10412.00
2023-05-24T10:03:42.901Z,11308.00
2023-05-24T10:04:42.943Z,12676.00
2023-05-24T10:05:42.926Z,14304.00
2023-05-24T10:06:42.911Z,15020.00
2023-05-24T10:07:42.900Z,14912.00
2023-05-24T10:08:42.905Z,15184.00
2023-05-24T10:09:42.905Z,16176.00
2023-05-24T10:10:43.116Z,16676.00
2023-05-24T10:11:42.915Z,16888.00
2023-05-24T10:12:42.920Z,16484.00
2023-05-24T10:13:42.905Z,16164.00
2023-05-24T10:14:42.939Z,15912.00
2023-05-24T10:15:42.908Z,16812.00
2023-05-24T10:16:42.982Z,20320.00
2023-05-24T10:17:42.990Z,17888.00
2023-05-24T10:18:42.920Z,16488.00
2023-05-24T10:19:42.920Z,15736.00
2023-05-24T10:20:43.356Z,14844.00
2023-05-24T10:21:42.930Z,13784.00
2023-05-24T10:22:42.931Z,12928.00
2023-05-24T10:23:42.918Z,12464.00
2023-05-24T10:24:42.920Z,12144.00
2023-05-24T10:25:42.934Z,12284.00
2023-05-24T10:26:42.947Z,13100.00
2023-05-24T10:27:42.924Z,13564.00
2023-05-24T10:28:42.977Z,13620.00
2023-05-24T10:29:42.931Z,13032.00
2023-05-24T10:30:43.403Z,12504.00
2023-05-24T10:31:43.030Z,12460.00
2023-05-24T10:32:43.047Z,12784.00
2023-05-24T10:33:42.949Z,13240.00
2023-05-24T10:34:42.954Z,14200.00
2023-05-24T10:35:42.948Z,15440.00
2023-05-24T10:36:42.949Z,17344.00
2023-05-24T10:37:42.957Z,19584.00
2023-05-24T10:38:42.951Z,21856.00
2023-05-24T10:39:42.942Z,24000.00
2023-05-24T10:40:42.985Z,22944.00
2023-05-24T10:41:42.954Z,22976.00
2023-05-24T10:42:42.967Z,24256.00
2023-05-24T10:43:43.086Z,28896.00
2023-05-24T10:44:42.956Z,43232.00
2023-05-24T10:45:42.958Z,47840.00
2023-05-24T10:46:43.038Z,29472.00
2023-05-24T10:47:42.980Z,24320.00
2023-05-24T10:48:42.978Z,24352.00
2023-05-24T10:49:42.970Z,23392.00
2023-05-24T10:50:43.216Z,28320.00
2023-05-24T10:51:42.971Z,31136.00
2023-05-24T10:52:42.977Z,74720.00
2023-05-24T10:53:42.973Z,42976.00
2023-05-24T10:54:52.668Z,37216.00
2023-05-24T10:55:42.979Z,29024.00
2023-05-24T10:56:42.987Z,42400.00
2023-05-24T10:57:43.001Z,35104.00
2023-05-24T10:58:42.993Z,106016.00
2023-05-24T10:59:42.990Z,66752.00
2023-05-24T11:00:43.027Z,82016.00
2023-05-24T11:01:43.046Z,115648.00
2023-05-24T11:02:43.197Z,104224.00
2023-05-24T11:03:43.014Z,50400.00
2023-05-24T11:04:43.044Z,25440.00
2023-05-24T11:05:45.024Z,24192.00
2023-05-24T11:06:43.024Z,21312.00
2023-05-24T11:07:43.100Z,20288.00
2023-05-24T11:08:43.040Z,18688.00
2023-05-24T11:09:43.041Z,17536.00
2023-05-24T11:10:43.268Z,15836.00
2023-05-24T11:11:43.049Z,13472.00
2023-05-24T11:12:43.067Z,12796.00
2023-05-24T11:13:43.075Z,12348.00
2023-05-24T11:14:43.077Z,12928.00
2023-05-24T11:15:43.078Z,14300.00
2023-05-24T11:16:43.173Z,14380.00
2023-05-24T11:17:43.674Z,13732.00
2023-05-24T11:18:43.138Z,13904.00
2023-05-24T11:19:43.098Z,14204.00
2023-05-24T11:20:43.370Z,14192.00
2023-05-24T11:21:43.220Z,15024.00
2023-05-24T11:22:43.116Z,19776.00
2023-05-24T11:23:43.119Z,27008.00
2023-05-24T11:24:43.128Z,106464.00
2023-05-24T11:25:43.136Z,111648.00
2023-05-24T11:26:43.141Z,27200.00
2023-05-24T11:27:43.142Z,19232.00
2023-05-24T11:28:43.268Z,17344.00
2023-05-24T11:29:43.156Z,15432.00
2023-05-24T11:30:43.438Z,14472.00
2023-05-24T11:31:44.705Z,14124.00
2023-05-24T11:32:43.230Z,14224.00
2023-05-24T11:33:43.181Z,16896.00
2023-05-24T11:34:43.219Z,21056.00
2023-05-24T11:35:43.197Z,34784.00
2023-05-24T11:36:43.206Z,19968.00
2023-05-24T11:37:46.673Z,18112.00
2023-05-24T11:38:43.232Z,18272.00
2023-05-24T11:39:43.218Z,17920.00
2023-05-24T11:40:43.475Z,18240.00
2023-05-24T11:41:43.281Z,17920.00
2023-05-24T11:42:43.244Z,26592.00
2023-05-24T11:43:43.232Z,42688.00
2023-05-24T11:44:43.264Z,69184.00
2023-05-24T11:45:43.329Z,93952.00
2023-05-24T11:46:43.257Z,97824.00
2023-05-24T11:47:43.301Z,73344.00
2023-05-24T11:48:43.262Z,84032.00
2023-05-24T11:49:43.274Z,67264.00
2023-05-24T11:50:49.255Z,20384.00
2023-05-24T11:51:43.359Z,20192.00
2023-05-24T11:52:43.295Z,20704.00
2023-05-24T11:53:43.301Z,20992.00
2023-05-24T11:54:43.327Z,29984.00
2023-05-24T11:55:43.418Z,87904.00
2023-05-24T11:56:43.330Z,90400.00
2023-05-24T11:57:43.336Z,95904.00
2023-05-24T11:58:43.338Z,56800.00
2023-05-24T11:59:43.348Z,30432.00
2023-05-24T12:00:43.594Z,28640.00
2023-05-24T12:01:43.478Z,46528.00
2023-05-24T12:02:43.456Z,50656.00
2023-05-24T12:03:43.463Z,62880.00
2023-05-24T12:04:43.572Z,49984.00
2023-05-24T12:05:43.409Z,63328.00
2023-05-24T12:06:43.450Z,34368.00
2023-05-24T12:07:43.420Z,53984.00
2023-05-24T12:08:43.423Z,22400.00
2023-05-24T12:09:43.436Z,41824.00
2023-05-24T12:10:43.717Z,12468.00
2023-05-24T12:11:43.511Z,12008.00
2023-05-24T12:12:46.225Z,11688.00
2023-05-24T12:13:43.481Z,11776.00
2023-05-24T12:14:43.487Z,11860.00
2023-05-24T12:15:43.559Z,11240.00
2023-05-24T12:16:43.502Z,10448.00
2023-05-24T12:17:43.555Z,10232.00
2023-05-24T12:18:55.086Z,10512.00
2023-05-24T12:19:43.534Z,10872.00
2023-05-24T12:20:44.040Z,11452.00
2023-05-24T12:21:43.557Z,11732.00